createdAt,value
2022-09-24T00:00:12.909Z,3.30
2022-09-24T00:02:40.552Z,5.25
2022-09-24T00:05:08.909Z,4.95
2022-09-24T00:07:36.462Z,4.55
2022-09-24T00:10:06.054Z,4.75
2022-09-24T00:12:34.718Z,4.03
2022-09-24T00:15:03.406Z,4.47
2022-09-24T00:17:30.985Z,5.78
2022-09-24T00:19:58.549Z,4.35
2022-09-24T00:22:26.074Z,4.43
2022-09-24T00:25:11.063Z,5.93
2022-09-24T00:27:39.989Z,3.95
2022-09-24T00:30:08.478Z,4.20
2022-09-24T00:32:36.034Z,3.85
2022-09-24T00:35:03.639Z,4.05
2022-09-24T00:37:31.167Z,3.50
2022-09-24T00:39:58.687Z,3.80
2022-09-24T00:42:26.250Z,4.38
2022-09-24T00:44:56.081Z,3.38
2022-09-24T00:47:34.617Z,4.30
2022-09-24T00:50:09.107Z,4.07
2022-09-24T00:52:37.248Z,4.53
2022-09-24T00:55:05.049Z,5.90
2022-09-24T00:57:32.764Z,3.90
2022-09-24T01:00:01.799Z,3.55
2022-09-24T01:02:30.879Z,4.15
2022-09-24T01:04:58.442Z,3.25
2022-09-24T01:07:26.385Z,3.88
2022-09-24T01:09:53.957Z,3.33
2022-09-24T01:12:28.829Z,3.30
2022-09-24T01:15:06.309Z,3.78
2022-09-24T01:17:37.005Z,3.58
2022-09-24T01:20:39.705Z,4.15
2022-09-24T01:23:15.289Z,3.53
2022-09-24T01:25:46.873Z,3.60
2022-09-24T01:28:30.267Z,4.95
2022-09-24T01:31:00.516Z,3.85
2022-09-24T01:33:28.245Z,3.38
2022-09-24T01:35:56.888Z,4.43
2022-09-24T01:38:26.796Z,4.30
2022-09-24T01:40:54.432Z,3.42
2022-09-24T01:43:25.386Z,3.30
2022-09-24T01:45:52.938Z,3.38
2022-09-24T01:48:22.454Z,3.95
2022-09-24T01:50:52.786Z,3.80
2022-09-24T01:53:29.963Z,3.72
2022-09-24T01:55:59.877Z,4.68
2022-09-24T01:58:29.244Z,3.60
2022-09-24T02:00:58.976Z,4.13
2022-09-24T02:03:29.754Z,3.92
2022-09-24T02:05:59.585Z,3.85
2022-09-24T02:08:29.342Z,3.88
2022-09-24T02:10:58.642Z,4.03
2022-09-24T02:13:27.594Z,4.53
2022-09-24T02:15:56.532Z,3.42
2022-09-24T02:18:25.020Z,4.70
2022-09-24T02:20:54.217Z,4.15
2022-09-24T02:23:21.858Z,3.15
2022-09-24T02:25:51.550Z,3.83
2022-09-24T02:28:19.229Z,3.95
2022-09-24T02:30:48.541Z,4.38
2022-09-24T02:33:30.002Z,3.20
2022-09-24T02:35:59.005Z,3.95
2022-09-24T02:38:26.566Z,3.97
2022-09-24T02:40:54.531Z,3.67
2022-09-24T02:43:22.229Z,3.28
2022-09-24T02:45:49.759Z,3.38
2022-09-24T02:48:17.301Z,3.78
2022-09-24T02:50:44.849Z,3.53
2022-09-24T02:53:13.874Z,3.55
2022-09-24T02:55:41.412Z,3.58
2022-09-24T02:58:08.974Z,3.65
2022-09-24T03:00:36.573Z,3.90
2022-09-24T03:03:04.276Z,4.07
2022-09-24T03:05:31.928Z,3.22
2022-09-24T03:08:00.051Z,3.13
2022-09-24T03:10:29.024Z,3.45
2022-09-24T03:12:56.725Z,3.40
2022-09-24T03:15:24.282Z,3.25
2022-09-24T03:17:51.901Z,3.20
2022-09-24T03:20:19.421Z,3.20
2022-09-24T03:22:47.900Z,3.40
2022-09-24T03:25:15.579Z,3.58
2022-09-24T03:27:44.477Z,3.35
2022-09-24T03:30:30.557Z,3.72
2022-09-24T03:32:58.104Z,2.88
2022-09-24T03:35:25.662Z,3.47
2022-09-24T03:37:53.233Z,3.60
2022-09-24T03:40:20.830Z,3.78
2022-09-24T03:42:49.775Z,4.18
2022-09-24T03:45:17.533Z,3.38
2022-09-24T03:47:45.069Z,3.75
2022-09-24T03:50:12.639Z,4.72
2022-09-24T03:52:40.293Z,3.05
2022-09-24T03:55:08.757Z,3.00
2022-09-24T03:57:36.292Z,3.03
2022-09-24T04:00:05.819Z,3.47
2022-09-24T04:02:33.391Z,3.58
2022-09-24T04:05:01.002Z,3.13
2022-09-24T04:07:28.520Z,3.80
2022-09-24T04:09:56.106Z,3.30
2022-09-24T04:12:23.730Z,3.53
2022-09-24T04:14:51.281Z,3.03
2022-09-24T04:17:20.192Z,3.95
2022-09-24T04:19:47.725Z,3.35
2022-09-24T04:22:15.273Z,3.80
2022-09-24T04:24:42.799Z,4.10
2022-09-24T04:27:10.382Z,2.95
2022-09-24T04:29:38.006Z,3.67
2022-09-24T04:32:05.557Z,3.85
2022-09-24T04:34:34.488Z,3.58
2022-09-24T04:37:02.028Z,3.20
2022-09-24T04:39:29.558Z,3.13
2022-09-24T04:41:57.119Z,3.53
2022-09-24T04:44:24.684Z,3.10
2022-09-24T04:46:52.313Z,2.97
2022-09-24T04:49:19.935Z,3.20
2022-09-24T04:51:48.898Z,3.20
2022-09-24T04:54:18.099Z,3.15
2022-09-24T04:56:45.634Z,3.15
2022-09-24T04:59:13.186Z,3.20
2022-09-24T05:01:40.855Z,2.90
2022-09-24T05:04:08.556Z,3.42
2022-09-24T05:06:36.207Z,3.20
2022-09-24T05:09:08.931Z,3.65
2022-09-24T05:11:39.272Z,2.80
2022-09-24T05:14:07.148Z,2.97
2022-09-24T05:16:35.062Z,2.97
2022-09-24T05:19:04.801Z,2.72
2022-09-24T05:21:32.459Z,3.20
2022-09-24T05:24:00.173Z,2.83
2022-09-24T05:26:46.401Z,2.88
2022-09-24T05:29:14.044Z,3.38
2022-09-24T05:31:41.692Z,2.97
2022-09-24T05:34:09.317Z,3.00
2022-09-24T05:36:37.063Z,3.05
2022-09-24T05:39:04.875Z,2.53
2022-09-24T05:41:33.966Z,3.33
2022-09-24T05:44:01.985Z,3.05
2022-09-24T05:46:29.980Z,3.08
2022-09-24T05:48:57.877Z,3.40
2022-09-24T05:51:25.482Z,3.03
2022-09-24T05:53:53.004Z,2.80
2022-09-24T05:56:20.549Z,3.13
2022-09-24T05:58:50.964Z,2.80
2022-09-24T06:01:18.483Z,2.50
2022-09-24T06:03:46.031Z,2.90
2022-09-24T06:06:13.588Z,2.88
2022-09-24T06:08:41.352Z,3.40
2022-09-24T06:11:09.508Z,3.30
2022-09-24T06:13:37.059Z,2.88
2022-09-24T06:16:07.410Z,3.10
2022-09-24T06:18:35.550Z,3.40
2022-09-24T06:21:03.757Z,2.47
2022-09-24T06:23:31.473Z,3.28
2022-09-24T06:25:58.998Z,2.42
2022-09-24T06:28:26.547Z,3.00
2022-09-24T06:30:54.319Z,2.90
2022-09-24T06:33:23.347Z,3.17
2022-09-24T06:35:50.932Z,3.20
2022-09-24T06:38:19.042Z,3.28
2022-09-24T06:40:48.336Z,2.90
2022-09-24T06:43:18.161Z,3.13
2022-09-24T06:45:45.805Z,4.93
2022-09-24T06:48:14.049Z,3.75
2022-09-24T06:50:43.635Z,4.43
2022-09-24T06:53:11.365Z,3.10
2022-09-24T06:55:39.266Z,2.80
2022-09-24T06:58:07.806Z,2.90
2022-09-24T07:00:35.575Z,2.78
2022-09-24T07:03:03.317Z,3.00
2022-09-24T07:05:30.847Z,2.90
2022-09-24T07:07:59.737Z,2.90
2022-09-24T07:10:27.951Z,3.38
2022-09-24T07:12:55.538Z,3.17
2022-09-24T07:15:23.157Z,3.50
2022-09-24T07:17:50.868Z,3.80
2022-09-24T07:20:18.966Z,2.88
2022-09-24T07:22:46.488Z,3.15
2022-09-24T07:25:15.426Z,3.38
2022-09-24T07:27:43.084Z,3.33
2022-09-24T07:30:13.622Z,2.50
2022-09-24T07:32:41.165Z,3.45
2022-09-24T07:35:09.094Z,2.70
2022-09-24T07:37:36.621Z,2.85
2022-09-24T07:40:04.268Z,2.97
2022-09-24T07:42:33.196Z,2.58
2022-09-24T07:45:00.877Z,4.10
2022-09-24T07:47:28.469Z,2.55
2022-09-24T07:49:55.998Z,5.63
2022-09-24T07:52:23.574Z,5.47
2022-09-24T07:54:52.258Z,4.05
2022-09-24T07:57:19.824Z,3.22
2022-09-24T07:59:48.697Z,5.40
2022-09-24T08:02:17.220Z,5.88
2022-09-24T08:04:44.831Z,3.35
2022-09-24T08:07:12.532Z,5.18
2022-09-24T08:09:40.076Z,3.15
2022-09-24T08:12:07.901Z,4.78
2022-09-24T08:14:35.428Z,3.58
2022-09-24T08:17:04.340Z,5.18
2022-09-24T08:19:33.192Z,5.90
2022-09-24T08:22:00.802Z,8.13
2022-09-24T08:24:28.497Z,3.78
2022-09-24T08:26:56.051Z,4.15
2022-09-24T08:29:23.590Z,10.13
2022-09-24T08:31:51.206Z,3.22
2022-09-24T08:34:20.152Z,3.58
2022-09-24T08:36:47.737Z,3.80
2022-09-24T08:39:15.547Z,5.32
2022-09-24T08:41:53.576Z,3.40
2022-09-24T08:44:36.652Z,3.30
2022-09-24T08:47:22.321Z,4.85
2022-09-24T08:49:53.901Z,6.38
2022-09-24T08:52:30.547Z,4.53
2022-09-24T08:54:58.093Z,5.80
2022-09-24T08:57:26.097Z,2.75
2022-09-24T08:59:53.858Z,3.90
2022-09-24T09:02:35.150Z,3.33
2022-09-24T09:05:07.835Z,2.97
2022-09-24T09:07:39.727Z,3.80
2022-09-24T09:10:10.828Z,3.33
2022-09-24T09:12:39.883Z,2.95
2022-09-24T09:15:08.258Z,2.95
2022-09-24T09:17:42.077Z,2.90
2022-09-24T09:20:17.014Z,3.10
2022-09-24T09:22:46.019Z,4.75
2022-09-24T09:25:21.777Z,7.18
2022-09-24T09:27:54.393Z,3.90
2022-09-24T09:30:22.729Z,3.50
2022-09-24T09:33:01.961Z,4.68
2022-09-24T09:35:35.384Z,3.40
2022-09-24T09:38:05.521Z,3.10
2022-09-24T09:40:35.097Z,3.20
2022-09-24T09:43:06.137Z,2.97
2022-09-24T09:45:37.093Z,3.08
2022-09-24T09:48:04.705Z,2.85
2022-09-24T09:50:36.812Z,3.45
2022-09-24T09:53:04.819Z,3.70
2022-09-24T09:55:33.224Z,3.35
2022-09-24T09:58:16.821Z,2.70
2022-09-24T10:00:46.916Z,4.10
2022-09-24T10:03:22.846Z,3.03
2022-09-24T10:05:57.957Z,3.95
2022-09-24T10:08:25.655Z,2.60
2022-09-24T10:10:55.237Z,5.05
2022-09-24T10:13:22.830Z,3.67
2022-09-24T10:15:50.912Z,4.97
2022-09-24T10:18:18.502Z,3.03
2022-09-24T10:20:48.131Z,4.43
2022-09-24T10:23:19.652Z,3.30
2022-09-24T10:25:51.659Z,4.57
2022-09-24T10:28:40.819Z,2.97
2022-09-24T10:31:12.470Z,3.60
2022-09-24T10:33:40.793Z,3.17
2022-09-24T10:36:09.415Z,2.55
2022-09-24T10:38:38.299Z,3.38
2022-09-24T10:41:15.936Z,4.35
2022-09-24T10:43:51.250Z,3.67
2022-09-24T10:46:28.550Z,4.95
2022-09-24T10:48:59.082Z,3.08
2022-09-24T10:51:30.808Z,2.60
2022-09-24T10:54:10.349Z,5.75
2022-09-24T10:56:43.559Z,3.53
2022-09-24T10:59:33.614Z,4.68
2022-09-24T11:02:10.550Z,2.45
2022-09-24T11:04:46.599Z,3.30
2022-09-24T11:07:27.161Z,3.85
2022-09-24T11:09:57.894Z,5.25
2022-09-24T11:12:27.845Z,3.65
2022-09-24T11:15:05.199Z,2.85
2022-09-24T11:17:34.261Z,3.58
2022-09-24T11:20:22.110Z,3.70
2022-09-24T11:22:57.585Z,2.83
2022-09-24T11:25:31.520Z,8.10
2022-09-24T11:28:05.683Z,2.90
2022-09-24T11:30:36.055Z,2.20
2022-09-24T11:33:11.698Z,2.90
2022-09-24T11:35:53.795Z,2.90
2022-09-24T11:38:23.700Z,3.03
2022-09-24T11:41:10.208Z,2.95
2022-09-24T11:43:49.349Z,2.75
2022-09-24T11:46:23.859Z,4.13
2022-09-24T11:48:58.900Z,2.70
2022-09-24T11:51:30.287Z,2.50
2022-09-24T11:53:59.548Z,2.72
2022-09-24T11:56:31.962Z,2.50
2022-09-24T11:59:01.065Z,4.47
2022-09-24T12:01:29.852Z,2.65
2022-09-24T12:03:58.411Z,2.63
2022-09-24T12:06:28.575Z,5.00
2022-09-24T12:08:57.654Z,2.95
2022-09-24T12:11:28.134Z,2.88
2022-09-24T12:13:59.085Z,2.50
2022-09-24T12:16:27.946Z,2.95
2022-09-24T12:18:57.493Z,6.80
2022-09-24T12:21:28.048Z,4.38
2022-09-24T12:24:02.643Z,3.65
2022-09-24T12:26:31.122Z,2.38
2022-09-24T12:29:34.003Z,2.53
2022-09-24T12:32:21.715Z,2.65
2022-09-24T12:34:52.065Z,3.72
2022-09-24T12:37:21.757Z,3.40
2022-09-24T12:39:51.278Z,11.75
2022-09-24T12:42:18.816Z,3.17
2022-09-24T12:44:49.866Z,5.07
2022-09-24T12:47:20.137Z,4.32
2022-09-24T12:49:50.195Z,2.35
2022-09-24T12:52:18.448Z,3.15
2022-09-24T12:54:45.997Z,2.65
2022-09-24T12:57:14.854Z,2.72
2022-09-24T12:59:51.266Z,3.03
2022-09-24T13:02:20.293Z,5.40
2022-09-24T13:04:52.135Z,3.65
2022-09-24T13:07:33.986Z,2.80
2022-09-24T13:10:23.898Z,3.83
2022-09-24T13:12:51.899Z,4.70
2022-09-24T13:15:28.329Z,5.38
2022-09-24T13:18:04.249Z,8.18
2022-09-24T13:20:32.142Z,17.15
2022-09-24T13:23:00.644Z,11.43
2022-09-24T13:25:28.690Z,10.02
2022-09-24T13:28:01.384Z,8.20
2022-09-24T13:30:38.093Z,8.80
2022-09-24T13:33:10.818Z,20.15
2022-09-24T13:35:43.373Z,27.40
2022-09-24T13:38:16.916Z,24.02
2022-09-24T13:40:46.257Z,20.67
2022-09-24T13:43:15.818Z,21.88
2022-09-24T13:45:45.114Z,15.02
2022-09-24T13:48:16.765Z,16.83
2022-09-24T13:50:45.609Z,18.13
2022-09-24T13:53:17.575Z,12.98
2022-09-24T13:55:45.842Z,12.82
2022-09-24T13:58:27.687Z,12.10
2022-09-24T14:00:57.413Z,13.10
2022-09-24T14:03:26.581Z,11.50
2022-09-24T14:05:54.161Z,7.72
2022-09-24T14:08:22.377Z,9.02
2022-09-24T14:10:50.977Z,6.35
2022-09-24T14:13:21.612Z,10.75
2022-09-24T14:15:57.433Z,11.50
2022-09-24T14:18:25.677Z,12.60
2022-09-24T14:20:56.491Z,10.50
2022-09-24T14:23:25.328Z,8.20
2022-09-24T14:25:52.887Z,7.88
2022-09-24T14:28:20.456Z,8.43
2022-09-24T14:30:52.203Z,8.43
2022-09-24T14:33:21.746Z,7.68
2022-09-24T14:35:50.007Z,6.63
2022-09-24T14:38:19.373Z,9.52
2022-09-24T14:40:48.361Z,6.53
2022-09-24T14:43:18.780Z,7.65
2022-09-24T14:45:46.936Z,9.35
2022-09-24T14:48:19.779Z,8.18
2022-09-24T14:50:48.704Z,11.90
2022-09-24T14:53:22.159Z,20.23
2022-09-24T14:55:49.810Z,23.63
2022-09-24T14:58:24.878Z,17.45
2022-09-24T15:00:55.390Z,14.30
2022-09-24T15:03:27.822Z,22.08
2022-09-24T15:06:08.236Z,31.92
2022-09-24T15:08:36.050Z,31.85
2022-09-24T15:11:15.302Z,65.15
2022-09-24T15:13:42.855Z,34.92
2022-09-24T15:16:19.377Z,55.90
2022-09-24T15:18:58.675Z,51.25
2022-09-24T15:21:27.856Z,32.78
2022-09-24T15:23:56.825Z,32.22
2022-09-24T15:26:26.482Z,30.13
2022-09-24T15:28:55.987Z,27.80
2022-09-24T15:31:24.157Z,28.90
2022-09-24T15:33:51.834Z,27.23
2022-09-24T15:36:21.105Z,25.80
2022-09-24T15:38:50.053Z,25.70
2022-09-24T15:41:17.724Z,21.15
2022-09-24T15:43:45.353Z,21.80
2022-09-24T15:46:13.035Z,18.95
2022-09-24T15:48:40.628Z,23.13
2022-09-24T15:51:14.977Z,19.50
2022-09-24T15:53:43.141Z,18.63
2022-09-24T15:56:12.252Z,20.13
2022-09-24T15:58:40.054Z,19.38
2022-09-24T16:01:07.843Z,14.35
2022-09-24T16:03:35.382Z,16.95
2022-09-24T16:06:03.311Z,17.85
2022-09-24T16:08:30.871Z,17.50
2022-09-24T16:10:58.724Z,18.10
2022-09-24T16:13:27.752Z,15.65
2022-09-24T16:15:55.384Z,16.20
2022-09-24T16:18:25.914Z,14.77
2022-09-24T16:20:53.541Z,14.70
2022-09-24T16:23:21.093Z,14.40
2022-09-24T16:25:55.824Z,14.48
2022-09-24T16:28:23.481Z,14.38
2022-09-24T16:30:52.488Z,12.85
2022-09-24T16:33:20.060Z,11.90
2022-09-24T16:35:47.757Z,12.18
2022-09-24T16:38:20.273Z,12.68
2022-09-24T16:40:51.964Z,11.27
2022-09-24T16:43:19.697Z,12.40
2022-09-24T16:45:47.333Z,12.45
2022-09-24T16:48:16.580Z,12.50
2022-09-24T16:50:44.173Z,10.95
2022-09-24T16:53:11.873Z,9.98
2022-09-24T16:55:39.481Z,11.35
2022-09-24T16:58:07.027Z,11.57
2022-09-24T17:00:34.612Z,13.00
2022-09-24T17:03:02.244Z,10.48
2022-09-24T17:05:34.087Z,10.63
2022-09-24T17:08:01.982Z,9.02
2022-09-24T17:10:51.604Z,10.95
2022-09-24T17:13:40.391Z,9.55
2022-09-24T17:16:28.378Z,10.05
2022-09-24T17:18:56.117Z,10.30
2022-09-24T17:21:25.001Z,9.48
2022-09-24T17:23:52.648Z,8.90
2022-09-24T17:26:21.285Z,11.43
2022-09-24T17:28:51.668Z,8.27
2022-09-24T17:31:21.258Z,9.38
2022-09-24T17:33:48.978Z,10.32
2022-09-24T17:36:16.657Z,9.63
2022-09-24T17:38:45.571Z,9.73
2022-09-24T17:41:13.808Z,11.30
2022-09-24T17:43:41.899Z,10.07
2022-09-24T17:46:14.141Z,8.63
2022-09-24T17:48:44.374Z,9.80
2022-09-24T17:51:12.946Z,8.20
2022-09-24T17:53:40.623Z,9.52
2022-09-24T17:56:11.326Z,10.20
2022-09-24T17:58:39.609Z,9.60
2022-09-24T18:01:08.261Z,9.82
2022-09-24T18:03:35.838Z,9.55
2022-09-24T18:06:03.641Z,8.43
2022-09-24T18:08:31.219Z,9.00
2022-09-24T18:11:02.741Z,8.90
2022-09-24T18:13:34.927Z,7.85
2022-09-24T18:16:04.135Z,11.30
2022-09-24T18:18:31.735Z,8.52
2022-09-24T18:21:01.076Z,8.55
2022-09-24T18:23:28.993Z,7.63
2022-09-24T18:25:57.144Z,8.50
2022-09-24T18:28:25.179Z,8.15
2022-09-24T18:31:06.020Z,7.43
2022-09-24T18:33:33.743Z,7.40
2022-09-24T18:36:05.138Z,7.75
2022-09-24T18:38:33.030Z,9.05
2022-09-24T18:41:01.707Z,8.20
2022-09-24T18:43:31.135Z,9.98
2022-09-24T18:46:05.121Z,7.65
2022-09-24T18:48:33.345Z,7.90
2022-09-24T18:51:01.157Z,15.90
2022-09-24T18:53:31.373Z,8.13
2022-09-24T18:55:59.773Z,6.35
2022-09-24T18:58:27.330Z,7.95
2022-09-24T19:00:59.098Z,8.93
2022-09-24T19:03:28.330Z,8.35
2022-09-24T19:05:56.950Z,9.60
2022-09-24T19:08:24.811Z,8.55
2022-09-24T19:10:53.253Z,6.25
2022-09-24T19:13:25.987Z,7.13
2022-09-24T19:15:54.009Z,7.63
2022-09-24T19:18:21.890Z,8.45
2022-09-24T19:20:50.926Z,11.95
2022-09-24T19:23:18.513Z,8.38
2022-09-24T19:25:46.102Z,6.38
2022-09-24T19:28:13.734Z,6.25
2022-09-24T19:30:42.005Z,7.53
2022-09-24T19:33:09.805Z,8.18
2022-09-24T19:35:37.649Z,10.10
2022-09-24T19:38:06.605Z,6.68
2022-09-24T19:40:34.274Z,9.00
2022-09-24T19:43:03.030Z,8.10
2022-09-24T19:45:31.213Z,7.78
2022-09-24T19:47:59.279Z,7.43
2022-09-24T19:50:26.965Z,6.13
2022-09-24T19:52:55.869Z,6.65
2022-09-24T19:55:28.520Z,7.68
2022-09-24T19:57:56.433Z,5.82
2022-09-24T20:00:24.986Z,6.53
2022-09-24T20:02:52.663Z,5.45
2022-09-24T20:05:20.409Z,5.95
2022-09-24T20:07:49.433Z,5.60
2022-09-24T20:10:16.973Z,8.00
2022-09-24T20:12:48.942Z,6.30
2022-09-24T20:15:16.586Z,5.95
2022-09-24T20:17:44.124Z,5.22
2022-09-24T20:20:11.658Z,6.70
2022-09-24T20:22:39.243Z,6.15
2022-09-24T20:25:07.797Z,6.75
2022-09-24T20:27:52.812Z,7.38
2022-09-24T20:30:23.827Z,6.25
2022-09-24T20:32:51.572Z,5.88
2022-09-24T20:35:19.201Z,5.47
2022-09-24T20:37:47.334Z,5.38
2022-09-24T20:40:15.120Z,5.07
2022-09-24T20:42:42.740Z,5.35
2022-09-24T20:45:10.546Z,6.03
2022-09-24T20:47:39.522Z,5.65
2022-09-24T20:50:08.317Z,5.53
2022-09-24T20:52:36.021Z,5.93
2022-09-24T20:55:03.656Z,5.50
2022-09-24T20:57:31.309Z,5.00
2022-09-24T20:59:58.889Z,6.13
2022-09-24T21:02:26.568Z,7.57
2022-09-24T21:04:55.623Z,5.07
2022-09-24T21:07:23.174Z,5.72
2022-09-24T21:09:50.766Z,6.13
2022-09-24T21:12:18.336Z,5.82
2022-09-24T21:14:45.891Z,5.72
2022-09-24T21:17:13.888Z,5.13
2022-09-24T21:19:41.630Z,5.43
2022-09-24T21:22:10.710Z,6.03
2022-09-24T21:24:39.497Z,5.10
2022-09-24T21:27:07.852Z,5.15
2022-09-24T21:29:35.409Z,5.72
2022-09-24T21:32:03.530Z,4.53
2022-09-24T21:34:31.170Z,5.22
2022-09-24T21:36:58.728Z,4.85
2022-09-24T21:39:28.410Z,5.25
2022-09-24T21:41:59.175Z,5.72
2022-09-24T21:44:31.910Z,6.38
2022-09-24T21:46:59.599Z,7.32
2022-09-24T21:49:27.470Z,5.90
2022-09-24T21:51:57.576Z,11.98
2022-09-24T21:54:25.338Z,6.28
2022-09-24T21:56:55.321Z,6.57
2022-09-24T21:59:40.560Z,6.85
2022-09-24T22:02:08.580Z,4.85
2022-09-24T22:04:36.301Z,5.47
2022-09-24T22:07:03.906Z,4.80
2022-09-24T22:09:32.148Z,4.80
2022-09-24T22:12:01.665Z,5.53
2022-09-24T22:14:29.392Z,5.45
2022-09-24T22:16:57.230Z,4.38
2022-09-24T22:19:24.836Z,5.13
2022-09-24T22:21:52.769Z,4.15
2022-09-24T22:24:20.376Z,4.18
2022-09-24T22:26:48.265Z,4.55
2022-09-24T22:29:17.244Z,4.78
2022-09-24T22:31:44.842Z,4.97
2022-09-24T22:34:29.790Z,4.55
2022-09-24T22:36:57.327Z,5.15
2022-09-24T22:39:24.986Z,5.65
2022-09-24T22:41:52.644Z,5.63
2022-09-24T22:44:21.529Z,4.88
2022-09-24T22:46:49.057Z,4.68
2022-09-24T22:49:16.705Z,5.15
2022-09-24T22:51:44.474Z,7.32
2022-09-24T22:54:12.784Z,7.95
2022-09-24T22:56:40.457Z,6.03
2022-09-24T22:59:08.003Z,4.78
2022-09-24T23:01:40.295Z,4.07
2022-09-24T23:04:08.184Z,4.07
2022-09-24T23:06:35.711Z,4.13
2022-09-24T23:09:03.290Z,4.47
2022-09-24T23:11:31.516Z,4.20
2022-09-24T23:14:00.048Z,4.20
2022-09-24T23:16:28.601Z,5.15
2022-09-24T23:18:58.516Z,4.53
2022-09-24T23:21:27.634Z,6.03
2022-09-24T23:23:55.479Z,4.15
2022-09-24T23:26:23.807Z,4.03
2022-09-24T23:28:52.669Z,5.13
2022-09-24T23:31:21.910Z,4.65
2022-09-24T23:33:49.633Z,4.10
2022-09-24T23:36:18.730Z,4.90
2022-09-24T23:38:46.314Z,4.82
2022-09-24T23:41:14.346Z,4.70
2022-09-24T23:43:42.281Z,4.47
2022-09-24T23:46:10.090Z,4.60
2022-09-24T23:48:38.038Z,5.40
2022-09-24T23:51:05.657Z,4.25
2022-09-24T23:53:34.842Z,4.10
2022-09-24T23:56:03.080Z,4.80
2022-09-24T23:58:30.591Z,4.53
